createdAt,value
2019-03-11T00:00:19.206Z,95645.4
2019-03-11T00:01:21.374Z,95648.3
2019-03-11T00:02:23.542Z,95647
2019-03-11T00:03:25.699Z,95651.8
2019-03-11T00:04:28.965Z,95653.2
2019-03-11T00:05:31.228Z,95650.8
2019-03-11T00:06:33.651Z,95649
2019-03-11T00:07:36.073Z,95657.8
2019-03-11T00:08:38.503Z,95657.8
2019-03-11T00:09:40.668Z,95652.2
2019-03-11T00:10:42.547Z,95659.2
2019-03-11T00:11:44.695Z,95668.5
2019-03-11T00:12:47.115Z,95661.3
2019-03-11T00:13:49.293Z,95664
2019-03-11T00:14:51.717Z,95666.4
2019-03-11T00:15:53.871Z,95664.9
2019-03-11T00:16:56.311Z,95672
2019-03-11T00:17:58.463Z,95673.3
2019-03-11T00:19:00.613Z,95676.6
2019-03-11T00:20:03.047Z,95677.9
2019-03-11T00:21:05.211Z,95681.4
2019-03-11T00:22:07.635Z,95686.1
2019-03-11T00:23:10.057Z,95684.5
2019-03-11T00:24:12.201Z,95687
2019-03-11T00:25:14.083Z,95691.4
2019-03-11T00:26:16.522Z,95693.2
2019-03-11T00:27:18.420Z,95690.4
2019-03-11T00:28:20.839Z,95697.5
2019-03-11T00:29:23.006Z,95704.4
2019-03-11T00:30:25.433Z,95702
2019-03-11T00:31:27.871Z,95710.2
2019-03-11T00:32:30.312Z,95703.3
2019-03-11T00:33:32.754Z,95703.6
2019-03-11T00:34:35.184Z,95706.7
2019-03-11T00:35:37.354Z,95708.5
2019-03-11T00:36:39.486Z,95708.7
2019-03-11T00:37:41.914Z,95713.2
2019-03-11T00:38:44.039Z,95706.5
2019-03-11T00:39:46.183Z,95706
2019-03-11T00:40:48.060Z,95706.4
2019-03-11T00:41:50.484Z,95707.4
2019-03-11T00:42:52.640Z,95717.4
2019-03-11T00:43:55.087Z,95706.5
2019-03-11T00:44:57.293Z,95708
2019-03-11T00:45:59.179Z,95707.7
2019-03-11T00:47:01.329Z,95711.3
2019-03-11T00:48:04.221Z,95715.3
2019-03-11T00:49:06.379Z,95718.4
2019-03-11T00:50:08.811Z,95714.2
2019-03-11T00:51:11.017Z,95717.1
2019-03-11T00:52:13.193Z,95713.9
2019-03-11T00:53:15.698Z,95715.2
2019-03-11T00:54:17.867Z,95717
2019-03-11T00:55:20.303Z,95717.2
2019-03-11T00:56:22.722Z,95713.9
2019-03-11T00:57:25.151Z,95712.8
2019-03-11T00:58:27.591Z,95713.6
2019-03-11T00:59:29.787Z,95709.7
2019-03-11T01:00:31.694Z,95706.5
2019-03-11T01:01:34.117Z,95710.5
2019-03-11T01:02:36.261Z,95708.3
2019-03-11T01:03:38.159Z,95708.3
2019-03-11T01:04:40.595Z,95710.9
2019-03-11T01:05:43.021Z,95709.5
2019-03-11T01:06:45.444Z,95708.5
2019-03-11T01:07:47.867Z,95710.3
2019-03-11T01:08:50.043Z,95704.4
2019-03-11T01:09:52.491Z,95711.1
2019-03-11T01:10:54.667Z,95716.4
2019-03-11T01:11:57.085Z,95710
2019-03-11T01:12:59.247Z,95704.3
2019-03-11T01:14:01.675Z,95710.6
2019-03-11T01:15:04.113Z,95711.4
2019-03-11T01:16:06.549Z,95716.9
2019-03-11T01:17:08.716Z,95707.4
2019-03-11T01:18:11.146Z,95712.5
2019-03-11T01:19:13.582Z,95714.9
2019-03-11T01:20:15.710Z,95708.8
2019-03-11T01:21:18.148Z,95716.2
2019-03-11T01:22:20.582Z,95715.8
2019-03-11T01:23:23.007Z,95715.9
2019-03-11T01:24:25.180Z,95713.5
2019-03-11T01:25:27.634Z,95713
2019-03-11T01:26:29.781Z,95714.6
2019-03-11T01:27:31.955Z,95713.4
2019-03-11T01:28:34.118Z,95717.4
2019-03-11T01:29:36.299Z,95713.1
2019-03-11T01:30:38.461Z,95713.8
2019-03-11T01:31:40.617Z,95712
2019-03-11T01:32:43.049Z,95711.1
2019-03-11T01:33:45.482Z,95710.4
2019-03-11T01:34:47.912Z,95715.1
2019-03-11T01:35:50.057Z,95714.2
2019-03-11T01:36:52.214Z,95712.3
2019-03-11T01:37:54.373Z,95718.5
2019-03-11T01:38:56.522Z,95713.2
2019-03-11T01:39:58.413Z,95712.4
2019-03-11T01:41:00.854Z,95711.2
2019-03-11T01:42:03.268Z,95707.8
2019-03-11T01:43:05.148Z,95711
2019-03-11T01:44:07.034Z,95707.4
2019-03-11T01:45:09.464Z,95704.9
2019-03-11T01:46:11.901Z,95694.1
2019-03-11T01:47:14.343Z,95696.5
2019-03-11T01:48:16.517Z,95690.3
2019-03-11T01:49:18.669Z,95695.9
2019-03-11T01:50:21.162Z,95687.5
2019-03-11T01:51:23.041Z,95687
2019-03-11T01:52:25.472Z,95682.1
2019-03-11T01:53:27.367Z,95682.6
2019-03-11T01:54:29.801Z,95677.9
2019-03-11T01:55:31.959Z,95684.3
2019-03-11T01:56:34.137Z,95680.1
2019-03-11T01:57:36.592Z,95675.4
2019-03-11T01:58:38.729Z,95674.1
2019-03-11T01:59:41.154Z,95677.8
2019-03-11T02:00:43.313Z,95671.5
2019-03-11T02:01:48.216Z,95667.9
2019-03-11T02:02:52.169Z,95671.8
2019-03-11T02:03:54.610Z,95666.4
2019-03-11T02:04:56.788Z,95669.2
2019-03-11T02:05:59.231Z,95662.9
2019-03-11T02:07:01.668Z,95666.5
2019-03-11T02:08:03.838Z,95662.2
2019-03-11T02:09:06.274Z,95668.5
2019-03-11T02:10:08.181Z,95663.1
2019-03-11T02:11:10.611Z,95666.4
2019-03-11T02:12:12.757Z,95663
2019-03-11T02:13:14.655Z,95659.4
2019-03-11T02:14:16.816Z,95660.4
2019-03-11T02:15:18.656Z,95655.9
2019-03-11T02:16:21.090Z,95660.5
2019-03-11T02:17:23.523Z,95656.6
2019-03-11T02:18:25.388Z,95653.8
2019-03-11T02:19:27.833Z,95656.4
2019-03-11T02:20:30.255Z,95657.4
2019-03-11T02:21:32.688Z,95651
2019-03-11T02:22:35.128Z,95650.7
2019-03-11T02:23:37.577Z,95648.6
2019-03-11T02:24:40.011Z,95646.9
2019-03-11T02:25:42.459Z,95645.2
2019-03-11T02:26:44.611Z,95641.5
2019-03-11T02:27:47.032Z,95645.5
2019-03-11T02:28:49.465Z,95641.5
2019-03-11T02:29:51.896Z,95639.3
2019-03-11T02:30:54.321Z,95639.4
2019-03-11T02:31:56.489Z,95633.2
2019-03-11T02:32:58.640Z,95634.5
2019-03-11T02:34:01.119Z,95636.1
2019-03-11T02:35:03.336Z,95631.2
2019-03-11T02:36:05.481Z,95626.8
2019-03-11T02:37:07.916Z,95628.2
2019-03-11T02:38:10.065Z,95621.3
2019-03-11T02:39:12.488Z,95621
2019-03-11T02:40:15.010Z,95621.9
2019-03-11T02:41:17.165Z,95623.3
2019-03-11T02:42:19.638Z,95616.5
2019-03-11T02:43:21.814Z,95613.8
2019-03-11T02:44:23.962Z,95610.7
2019-03-11T02:45:26.374Z,95604.4
2019-03-11T02:46:28.814Z,95610.6
2019-03-11T02:47:31.258Z,95603.3
2019-03-11T02:48:33.697Z,95604
2019-03-11T02:49:36.121Z,95606.7
2019-03-11T02:50:38.602Z,95596.2
2019-03-11T02:51:41.022Z,95602.4
2019-03-11T02:52:43.163Z,95591.6
2019-03-11T02:53:45.583Z,95590.8
2019-03-11T02:54:47.469Z,95591.9
2019-03-11T02:56:54.879Z,95586.5
2019-03-11T02:57:57.357Z,95582.6
2019-03-11T02:58:59.834Z,95573.5
2019-03-11T03:00:02.027Z,95583.8
2019-03-11T03:01:04.459Z,95578.2
2019-03-11T03:02:06.600Z,95586
2019-03-11T03:03:09.077Z,95583.1
2019-03-11T03:04:11.673Z,95573.6
2019-03-11T03:05:13.850Z,95580.3
2019-03-11T03:06:15.980Z,95578.9
2019-03-11T03:07:18.408Z,95571.5
2019-03-11T03:08:20.567Z,95581.8
2019-03-11T03:09:22.708Z,95579.2
2019-03-11T03:10:24.605Z,95581.3
2019-03-11T03:11:27.029Z,95580.5
2019-03-11T03:12:29.523Z,95579
2019-03-11T03:13:31.672Z,95577.6
2019-03-11T03:14:33.928Z,95578.4
2019-03-11T03:15:36.101Z,95574.9
2019-03-11T03:16:38.242Z,95576.6
2019-03-11T03:17:40.666Z,95574
2019-03-11T03:18:43.150Z,95575.5
2019-03-11T03:19:45.382Z,95574.2
2019-03-11T03:20:47.577Z,95574.5
2019-03-11T03:21:50.014Z,95568.3
2019-03-11T03:22:52.161Z,95567.3
2019-03-11T03:23:54.599Z,95567.2
2019-03-11T03:24:56.796Z,95564.1
2019-03-11T03:25:59.223Z,95558.6
2019-03-11T03:27:01.407Z,95569.5
2019-03-11T03:28:04.874Z,95565.6
2019-03-11T03:29:07.737Z,95565.1
2019-03-11T03:30:10.177Z,95566.1
2019-03-11T03:31:12.342Z,95563.9
2019-03-11T03:32:14.861Z,95561
2019-03-11T03:33:16.771Z,95559.4
2019-03-11T03:34:18.648Z,95560.4
2019-03-11T03:35:20.639Z,95558.2
2019-03-11T03:36:23.078Z,95566.1
2019-03-11T03:37:25.557Z,95560.2
2019-03-11T03:39:32.674Z,95561.7
2019-03-11T03:40:34.831Z,95559.4
2019-03-11T03:41:37.257Z,95562.3
2019-03-11T03:42:39.456Z,95564.3
2019-03-11T03:43:41.966Z,95563
2019-03-11T03:44:44.114Z,95561.7
2019-03-11T03:45:46.290Z,95562.1
2019-03-11T03:46:48.427Z,95563.9
2019-03-11T03:47:50.313Z,95559.4
2019-03-11T03:48:53.512Z,95561.8
2019-03-11T03:49:55.694Z,95560.7
2019-03-11T03:50:57.846Z,95559.7
2019-03-11T03:52:00.281Z,95559.4
2019-03-11T03:53:02.197Z,95562.6
2019-03-11T03:54:04.660Z,95560.2
2019-03-11T03:55:07.088Z,95560.1
2019-03-11T03:56:09.507Z,95564.5
2019-03-11T03:57:11.675Z,95563.8
2019-03-11T03:58:14.107Z,95565.1
2019-03-11T03:59:16.561Z,95562.8
2019-03-11T04:00:18.705Z,95558.5
2019-03-11T04:01:20.588Z,95559.7
2019-03-11T04:02:23.014Z,95560.9
2019-03-11T04:03:25.451Z,95563.6
2019-03-11T04:04:27.901Z,95556
2019-03-11T04:05:30.335Z,95559
2019-03-11T04:06:32.499Z,95561.1
2019-03-11T04:07:34.616Z,95553.8
2019-03-11T04:08:36.779Z,95548.6
2019-03-11T04:09:38.935Z,95548.1
2019-03-11T04:10:41.383Z,95543.5
2019-03-11T04:11:43.962Z,95546.8
2019-03-11T04:12:45.566Z,95544.8
2019-03-11T04:13:48.016Z,95549.5
2019-03-11T04:14:50.434Z,95553.1
2019-03-11T04:15:52.598Z,95547.3
2019-03-11T04:16:54.729Z,95548.4
2019-03-11T04:17:57.203Z,95543.6
2019-03-11T04:18:59.381Z,95542.7
2019-03-11T04:20:01.899Z,95546
2019-03-11T04:21:04.338Z,95545.5
2019-03-11T04:22:06.767Z,95545
2019-03-11T04:23:08.934Z,95545.8
2019-03-11T04:24:11.100Z,95541.7
2019-03-11T04:25:13.265Z,95544.7
2019-03-11T04:26:15.698Z,95543.2
2019-03-11T04:27:18.140Z,95541.9
2019-03-11T04:28:20.571Z,95548.5
2019-03-11T04:29:22.738Z,95545.7
2019-03-11T04:30:24.960Z,95548
2019-03-11T04:31:27.377Z,95543.5
2019-03-11T04:32:29.837Z,95539.6
2019-03-11T04:33:32.252Z,95542.9
2019-03-11T04:35:39.118Z,95531.5
2019-03-11T04:36:41.596Z,95537.8
2019-03-11T04:37:44.647Z,95530
2019-03-11T04:38:46.780Z,95530.8
2019-03-11T04:39:48.686Z,95527.7
2019-03-11T04:40:50.878Z,95527.1
2019-03-11T04:41:53.020Z,95522.5
2019-03-11T04:42:55.179Z,95519.2
2019-03-11T04:43:57.336Z,95526.5
2019-03-11T04:44:59.502Z,95523.8
2019-03-11T04:46:01.932Z,95513.6
2019-03-11T04:47:04.367Z,95516.6
2019-03-11T04:48:06.790Z,95512.9
2019-03-11T04:49:08.935Z,95517.2
2019-03-11T04:50:11.068Z,95512.3
2019-03-11T04:51:13.230Z,95508.7
2019-03-11T04:52:15.378Z,95504.3
2019-03-11T04:53:17.512Z,95508.1
2019-03-11T04:54:19.938Z,95508.5
2019-03-11T04:55:22.137Z,95505.6
2019-03-11T04:56:24.560Z,95509.4
2019-03-11T04:57:26.426Z,95502.3
2019-03-11T04:58:28.589Z,95502.6
2019-03-11T04:59:30.756Z,95511.9
2019-03-11T05:00:32.663Z,95513.1
2019-03-11T05:01:35.072Z,95506.8
2019-03-11T05:02:37.236Z,95507.5
2019-03-11T05:03:39.654Z,95501.1
2019-03-11T05:04:42.088Z,95501.8
2019-03-11T05:05:44.559Z,95499.7
2019-03-11T05:06:46.992Z,95497.9
2019-03-11T05:07:49.428Z,95499.4
2019-03-11T05:08:51.350Z,95496.4
2019-03-11T05:09:53.225Z,95492.4
2019-03-11T05:10:55.462Z,95490
2019-03-11T05:11:57.882Z,95490.2
2019-03-11T05:13:00.110Z,95484.8
2019-03-11T05:14:02.546Z,95478.3
2019-03-11T05:15:04.720Z,95478.5
2019-03-11T05:16:06.896Z,95469.6
2019-03-11T05:17:09.128Z,95476.1
2019-03-11T05:18:11.578Z,95465.3
2019-03-11T05:19:13.707Z,95475.1
2019-03-11T05:20:16.136Z,95464.3
2019-03-11T05:21:17.994Z,95465.9
2019-03-11T05:22:20.147Z,95461.8
2019-03-11T05:23:22.566Z,95462.9
2019-03-11T05:24:24.992Z,95457.9
2019-03-11T05:25:27.429Z,95458
2019-03-11T05:26:29.567Z,95457.1
2019-03-11T05:27:32.034Z,95456.8
2019-03-11T05:28:33.919Z,95459.8
2019-03-11T05:29:35.778Z,95456.3
2019-03-11T05:30:38.210Z,95454.8
2019-03-11T05:31:40.358Z,95445.8
2019-03-11T05:32:42.524Z,95449.7
2019-03-11T05:33:44.686Z,95454.6
2019-03-11T05:34:46.847Z,95448.8
2019-03-11T05:35:49.290Z,95452.2
2019-03-11T05:36:51.615Z,95444
2019-03-11T05:37:54.096Z,95445.9
2019-03-11T05:38:56.511Z,95451.3
2019-03-11T05:39:58.936Z,95442.6
2019-03-11T05:41:01.360Z,95444.3
2019-03-11T05:42:03.506Z,95441.1
2019-03-11T05:43:05.944Z,95432.8
2019-03-11T05:44:08.387Z,95445.2
2019-03-11T05:45:10.551Z,95443.6
2019-03-11T05:46:13.496Z,95430.6
2019-03-11T05:47:15.964Z,95439.3
2019-03-11T05:48:18.382Z,95431.7
2019-03-11T05:49:20.929Z,95439.1
2019-03-11T05:50:22.858Z,95435.9
2019-03-11T05:52:30.018Z,95434.6
2019-03-11T05:53:32.178Z,95426.1
2019-03-11T05:54:34.622Z,95428.7
2019-03-11T05:55:36.798Z,95435.4
2019-03-11T05:56:38.709Z,95433.5
2019-03-11T05:57:41.145Z,95431.7
2019-03-11T05:58:43.567Z,95427.1
2019-03-11T05:59:45.736Z,95426.9
2019-03-11T06:00:48.199Z,95426.6
2019-03-11T06:01:50.079Z,95423.1
2019-03-11T06:02:52.509Z,95417.4
2019-03-11T06:03:54.983Z,95419.3
2019-03-11T06:04:57.430Z,95413
2019-03-11T06:05:59.605Z,95410.7
2019-03-11T06:07:02.053Z,95419.1
2019-03-11T06:08:04.485Z,95403.1
2019-03-11T06:09:06.919Z,95409.6
2019-03-11T06:10:09.347Z,95401.2
2019-03-11T06:11:11.244Z,95405
2019-03-11T06:12:13.725Z,95403.5
2019-03-11T06:13:16.154Z,95407
2019-03-11T06:14:18.617Z,95390
2019-03-11T06:15:21.076Z,95396.6
2019-03-11T06:16:23.248Z,95392.6
2019-03-11T06:17:25.669Z,95392.3
2019-03-11T06:18:27.842Z,95392.7
2019-03-11T06:19:29.978Z,95387.1
2019-03-11T06:20:31.627Z,95387.7
2019-03-11T06:21:33.782Z,95396.6
2019-03-11T06:22:36.198Z,95396.6
2019-03-11T06:23:38.361Z,95393.2
2019-03-11T06:24:40.799Z,95401.1
2019-03-11T06:25:43.242Z,95412.7
2019-03-11T06:26:45.376Z,95398.8
2019-03-11T06:27:47.812Z,95406.3
2019-03-11T06:28:49.702Z,95404.1
2019-03-11T06:29:51.873Z,95413.1
2019-03-11T06:30:54.307Z,95414.5
2019-03-11T06:31:56.466Z,95406.8
2019-03-11T06:32:58.891Z,95414.5
2019-03-11T06:34:00.807Z,95420.8
2019-03-11T06:35:03.243Z,95414.9
2019-03-11T06:36:05.391Z,95416.5
2019-03-11T06:37:07.561Z,95419.6
2019-03-11T06:38:09.716Z,95417.1
2019-03-11T06:39:11.909Z,95412.7
2019-03-11T06:40:14.326Z,95421.6
2019-03-11T06:41:16.748Z,95414.4
2019-03-11T06:42:18.970Z,95415.7
2019-03-11T06:43:21.571Z,95417.5
2019-03-11T06:44:24.003Z,95419.1
2019-03-11T06:45:26.445Z,95409.8
2019-03-11T06:46:28.617Z,95422.9
2019-03-11T06:47:31.037Z,95417.3
2019-03-11T06:48:33.480Z,95415.9
2019-03-11T06:49:35.923Z,95416.1
2019-03-11T06:50:37.809Z,95418.7
2019-03-11T06:51:39.967Z,95415.7
2019-03-11T06:52:42.124Z,95413
2019-03-11T06:53:43.984Z,95423.8
2019-03-11T06:54:46.143Z,95421.4
2019-03-11T06:55:48.027Z,95415.6
2019-03-11T06:56:50.180Z,95416.8
2019-03-11T06:57:52.345Z,95426.3
2019-03-11T06:58:54.781Z,95432.4
2019-03-11T06:59:57.205Z,95438.7
2019-03-11T07:00:58.796Z,95439.4
2019-03-11T07:02:00.691Z,95441.2
2019-03-11T07:03:02.569Z,95451.6
2019-03-11T07:04:05.019Z,95444.3
2019-03-11T07:05:07.171Z,95445
2019-03-11T07:06:14.059Z,95448.9
2019-03-11T07:07:15.927Z,95458.2
2019-03-11T07:08:18.080Z,95451.8
2019-03-11T07:09:20.431Z,95448.3
2019-03-11T07:10:22.778Z,95439.7
2019-03-11T07:11:24.937Z,95454.2
2019-03-11T07:12:27.360Z,95465.1
2019-03-11T07:13:29.536Z,95462.3
2019-03-11T07:14:31.694Z,95462.6
2019-03-11T07:15:34.126Z,95457.7
2019-03-11T07:16:36.558Z,95445.4
2019-03-11T07:17:39.007Z,95449.6
2019-03-11T07:18:41.440Z,95475.3
2019-03-11T07:19:43.627Z,95495.5
2019-03-11T07:20:46.045Z,95511
2019-03-11T07:21:48.479Z,95504.1
2019-03-11T07:22:50.906Z,95500.2
2019-03-11T07:23:53.399Z,95496.3
2019-03-11T07:24:55.273Z,95507.3
2019-03-11T07:25:57.435Z,95505.6
2019-03-11T07:26:59.858Z,95511.7
2019-03-11T07:28:02.028Z,95520.4
2019-03-11T07:29:04.471Z,95525
2019-03-11T07:30:06.941Z,95522.8
2019-03-11T07:31:09.376Z,95529.1
2019-03-11T07:32:11.251Z,95527.5
2019-03-11T07:33:13.678Z,95531.4
2019-03-11T07:34:15.567Z,95534.4
2019-03-11T07:35:17.991Z,95540.2
2019-03-11T07:36:20.421Z,95528.4
2019-03-11T07:37:23.247Z,95528.5
2019-03-11T07:38:25.524Z,95549.7
2019-03-11T07:39:27.669Z,95530
2019-03-11T07:40:31.871Z,95531.3
2019-03-11T07:41:34.287Z,95523.3
2019-03-11T07:42:36.431Z,95525.3
2019-03-11T07:43:38.306Z,95532.7
2019-03-11T07:44:40.749Z,95534
2019-03-11T07:45:43.179Z,95537.9
2019-03-11T07:46:46.609Z,95534.1
2019-03-11T07:47:48.747Z,95537.2
2019-03-11T07:48:51.177Z,95534.1
2019-03-11T07:49:53.611Z,95531.1
2019-03-11T07:50:56.039Z,95532.4
2019-03-11T07:51:57.897Z,95534.1
2019-03-11T07:52:59.785Z,95532.4
2019-03-11T07:54:02.210Z,95528.3
2019-03-11T07:55:04.635Z,95535.7
2019-03-11T07:56:06.807Z,95534.2
2019-03-11T07:58:14.897Z,95536
2019-03-11T07:59:17.328Z,95531.7
2019-03-11T08:00:19.469Z,95540.8
2019-03-11T08:01:21.890Z,95554.4
2019-03-11T08:02:24.056Z,95539.6
2019-03-11T08:03:26.221Z,95532.7
2019-03-11T08:04:28.650Z,95533.3
2019-03-11T08:05:31.236Z,95533.7
2019-03-11T08:06:33.670Z,95523.5
2019-03-11T08:07:36.101Z,95522.9
2019-03-11T08:08:37.987Z,95525.8
2019-03-11T08:09:40.423Z,95529.2
2019-03-11T08:10:42.929Z,95525.7
2019-03-11T08:11:45.145Z,95534.5
2019-03-11T08:12:47.312Z,95530.2
2019-03-11T08:13:49.455Z,95530.9
2019-03-11T08:14:51.632Z,95541.8
2019-03-11T08:15:54.059Z,95535.8
2019-03-11T08:16:56.500Z,95539.4
2019-03-11T08:17:58.931Z,95537.1
2019-03-11T08:19:01.359Z,95537.2
2019-03-11T08:20:03.509Z,95530.4
2019-03-11T08:21:05.651Z,95530.8
2019-03-11T08:22:08.075Z,95523.2
2019-03-11T08:23:10.499Z,95533.2
2019-03-11T08:24:12.654Z,95540.1
2019-03-11T08:25:15.098Z,95525.3
2019-03-11T08:26:17.269Z,95537.8
2019-03-11T08:27:19.426Z,95531
2019-03-11T08:28:21.871Z,95535.7
2019-03-11T08:29:24.305Z,95525.4
2019-03-11T08:30:26.723Z,95518.7
2019-03-11T08:31:28.871Z,95524.9
2019-03-11T08:32:31.008Z,95534.9
2019-03-11T08:33:33.439Z,95535.7
2019-03-11T08:34:35.599Z,95537.6
2019-03-11T08:35:37.752Z,95536.6
2019-03-11T08:36:40.177Z,95527.2
2019-03-11T08:37:42.607Z,95518.7
2019-03-11T08:38:44.769Z,95506.8
2019-03-11T08:39:47.215Z,95515.1
2019-03-11T08:40:49.651Z,95518.5
2019-03-11T08:41:51.812Z,95510.8
2019-03-11T08:42:53.949Z,95519.5
2019-03-11T08:43:56.419Z,95515.3
2019-03-11T08:44:58.581Z,95517.8
2019-03-11T08:46:00.454Z,95503.4
2019-03-11T08:47:02.347Z,95503.6
2019-03-11T08:48:04.510Z,95501.1
2019-03-11T08:49:06.681Z,95511.6
2019-03-11T08:50:09.119Z,95504.7
2019-03-11T08:51:11.000Z,95507.6
2019-03-11T08:52:13.166Z,95513.9
2019-03-11T08:53:15.041Z,95513.4
2019-03-11T08:54:17.467Z,95510.3
2019-03-11T08:55:19.615Z,95516.6
2019-03-11T08:56:22.039Z,95520.2
2019-03-11T08:57:24.177Z,95512.6
2019-03-11T08:58:26.329Z,95517
2019-03-11T08:59:28.202Z,95512.2
2019-03-11T09:00:30.626Z,95507.5
2019-03-11T09:01:32.214Z,95509.2
2019-03-11T09:02:34.109Z,95511.1
2019-03-11T09:03:36.281Z,95506.1
2019-03-11T09:04:38.727Z,95509.7
2019-03-11T09:05:40.894Z,95505.6
2019-03-11T09:06:43.049Z,95501.8
2019-03-11T09:07:44.958Z,95502.4
2019-03-11T09:08:47.391Z,95494.2
2019-03-11T09:09:49.548Z,95499
2019-03-11T09:10:51.711Z,95507.3
2019-03-11T09:11:54.156Z,95500.7
2019-03-11T09:12:56.591Z,95503.1
2019-03-11T09:13:58.766Z,95504
2019-03-11T09:15:00.928Z,95506.2
2019-03-11T09:16:02.297Z,95510.7
2019-03-11T09:17:04.720Z,95513.6
2019-03-11T09:18:07.152Z,95519.4
2019-03-11T09:19:09.304Z,95523.9
2019-03-11T09:20:11.194Z,95528.7
2019-03-11T09:21:13.353Z,95528.8
2019-03-11T09:22:15.778Z,95536.2
2019-03-11T09:23:17.722Z,95546.4
2019-03-11T09:24:20.877Z,95546.1
2019-03-11T09:25:23.030Z,95552.9
2019-03-11T09:26:25.460Z,95543.1
2019-03-11T09:27:27.120Z,95543.9
2019-03-11T09:28:29.742Z,95542.8
2019-03-11T09:29:32.344Z,95545.2
2019-03-11T09:30:34.770Z,95541.2
2019-03-11T09:31:37.201Z,95541.3
2019-03-11T09:32:39.361Z,95542.6
2019-03-11T09:33:42.199Z,95539.3
2019-03-11T09:34:44.347Z,95535
2019-03-11T09:35:46.484Z,95520.7
2019-03-11T09:36:48.639Z,95522.4
2019-03-11T09:37:51.091Z,95513.8
2019-03-11T09:38:52.704Z,95509.6
2019-03-11T09:39:55.129Z,95514.7
2019-03-11T09:40:57.279Z,95517.3
2019-03-11T09:41:59.697Z,95518.1
2019-03-11T09:43:01.858Z,95523.3
2019-03-11T09:44:04.274Z,95530.6
2019-03-11T09:45:06.712Z,95534.2
2019-03-11T09:46:08.589Z,95530.9
2019-03-11T09:47:11.041Z,95536.2
2019-03-11T09:48:13.469Z,95534.4
2019-03-11T09:49:15.624Z,95539.6
2019-03-11T09:50:17.793Z,95536.7
2019-03-11T09:51:20.303Z,95539.1
2019-03-11T09:52:22.755Z,95542.6
2019-03-11T09:53:24.893Z,95547.6
2019-03-11T09:54:27.329Z,95548.2
2019-03-11T09:55:29.761Z,95547.8
2019-03-11T09:57:37.587Z,95548.1
2019-03-11T09:58:40.021Z,95550.6
2019-03-11T09:59:42.452Z,95552.3
2019-03-11T10:00:44.882Z,95553.9
2019-03-11T10:01:47.322Z,95557.7
2019-03-11T10:03:54.224Z,95562.6
2019-03-11T10:04:56.647Z,95572.2
2019-03-11T10:05:58.793Z,95569.1
2019-03-11T10:07:00.950Z,95579.3
2019-03-11T10:08:03.368Z,95589.4
2019-03-11T10:09:05.521Z,95597.6
2019-03-11T10:10:08.000Z,95604.2
2019-03-11T10:11:10.168Z,95607.5
2019-03-11T10:12:12.608Z,95608.4
2019-03-11T10:13:15.040Z,95613.9
2019-03-11T10:14:17.463Z,95612.8
2019-03-11T10:15:19.601Z,95615.7
2019-03-11T10:16:22.058Z,95620.3
2019-03-11T10:17:24.218Z,95616
2019-03-11T10:18:26.372Z,95616
2019-03-11T10:19:28.540Z,95624.6
2019-03-11T10:20:31.006Z,95623.8
2019-03-11T10:21:33.184Z,95625.1
2019-03-11T10:22:35.604Z,95614.6
2019-03-11T10:23:38.027Z,95622.5
2019-03-11T10:24:40.449Z,95635.4
2019-03-11T10:25:42.885Z,95637
2019-03-11T10:26:45.327Z,95630.8
2019-03-11T10:27:47.519Z,95631.1
2019-03-11T10:28:49.929Z,95631.2
2019-03-11T10:29:52.359Z,95631
2019-03-11T10:30:54.525Z,95642
2019-03-11T10:31:56.681Z,95646.1
2019-03-11T10:32:58.838Z,95642.8
2019-03-11T10:34:00.997Z,95647.8
2019-03-11T10:35:03.433Z,95642.5
2019-03-11T10:36:05.874Z,95650.2
2019-03-11T10:37:08.012Z,95660.1
2019-03-11T10:38:10.445Z,95654.7
2019-03-11T10:39:12.872Z,95660.9
2019-03-11T10:40:15.091Z,95662.7
2019-03-11T10:41:16.980Z,95659
2019-03-11T10:42:19.133Z,95659.1
2019-03-11T10:43:21.278Z,95661.8
2019-03-11T10:44:23.697Z,95664.6
2019-03-11T10:46:31.115Z,95669.6
2019-03-11T10:47:33.538Z,95671.6
2019-03-11T10:49:40.942Z,95666.4
2019-03-11T10:50:43.518Z,95667
2019-03-11T10:51:45.675Z,95673.7
2019-03-11T10:52:48.109Z,95671.8
2019-03-11T10:53:50.542Z,95678.5
2019-03-11T10:54:52.691Z,95676.6
2019-03-11T10:55:54.564Z,95671.7
2019-03-11T10:56:57.003Z,95672.9
2019-03-11T10:57:59.434Z,95673.2
2019-03-11T10:59:01.862Z,95677
2019-03-11T11:00:04.290Z,95678.4
2019-03-11T11:01:06.748Z,95682.2
2019-03-11T11:02:13.641Z,95682
2019-03-11T11:03:16.071Z,95691
2019-03-11T11:04:18.499Z,95692.7
2019-03-11T11:05:20.662Z,95690.3
2019-03-11T11:06:23.090Z,95691.6
2019-03-11T11:07:25.524Z,95694
2019-03-11T11:08:27.739Z,95685.3
2019-03-11T11:09:29.906Z,95686
2019-03-11T11:10:32.058Z,95683.8
2019-03-11T11:12:40.462Z,95674.4
2019-03-11T11:13:42.898Z,95671
2019-03-11T11:14:45.335Z,95675
2019-03-11T11:15:47.762Z,95670.5
2019-03-11T11:16:49.912Z,95670.7
2019-03-11T11:17:52.095Z,95669
2019-03-11T11:18:54.523Z,95665.6
2019-03-11T11:21:01.680Z,95667.2
2019-03-11T11:22:04.113Z,95670.3
2019-03-11T11:23:06.550Z,95669.8
2019-03-11T11:24:08.994Z,95665.6
2019-03-11T11:25:11.143Z,95664.3
2019-03-11T11:26:13.568Z,95662.7
2019-03-11T11:27:15.470Z,95666.3
2019-03-11T11:28:17.666Z,95662
2019-03-11T11:29:20.185Z,95660.3
2019-03-11T11:30:22.620Z,95653.8
2019-03-11T11:31:25.062Z,95658.1
2019-03-11T11:32:27.490Z,95656.4
2019-03-11T11:33:29.633Z,95655.5
2019-03-11T11:34:31.220Z,95653
2019-03-11T11:35:33.662Z,95653.9
2019-03-11T11:36:36.696Z,95653.8
2019-03-11T11:37:38.847Z,95656
2019-03-11T11:38:41.282Z,95652.5
2019-03-11T11:39:43.495Z,95661.5
2019-03-11T11:40:45.932Z,95664.2
2019-03-11T11:41:48.362Z,95659.4
2019-03-11T11:42:50.795Z,95653.8
2019-03-11T11:43:52.956Z,95659.2
2019-03-11T11:44:55.398Z,95649.5
2019-03-11T11:45:57.830Z,95656.4
2019-03-11T11:47:00.012Z,95655.5
2019-03-11T11:48:02.192Z,95650.7
2019-03-11T11:49:04.617Z,95654.4
2019-03-11T11:50:06.480Z,95649.2
2019-03-11T11:51:08.910Z,95656.9
2019-03-11T11:52:11.342Z,95652
2019-03-11T11:53:13.771Z,95642.7
2019-03-11T11:54:15.945Z,95647
2019-03-11T11:55:18.377Z,95651.4
2019-03-11T11:56:20.827Z,95648
2019-03-11T11:57:22.980Z,95642.2
2019-03-11T11:58:25.146Z,95643.8
2019-03-11T11:59:27.638Z,95646.1
2019-03-11T12:00:30.048Z,95643.4
2019-03-11T12:01:32.224Z,95640
2019-03-11T12:02:34.657Z,95636.8
2019-03-11T12:03:36.814Z,95643.7
2019-03-11T12:04:38.713Z,95635.5
2019-03-11T12:05:41.148Z,95633.1
2019-03-11T12:06:43.568Z,95628.9
2019-03-11T12:07:45.992Z,95633.6
2019-03-11T12:08:48.414Z,95630.8
2019-03-11T12:09:50.872Z,95631
2019-03-11T12:10:53.016Z,95636.9
2019-03-11T12:11:54.885Z,95633.6
2019-03-11T12:12:57.322Z,95628.1
2019-03-11T12:13:59.477Z,95621.8
2019-03-11T12:15:02.004Z,95621.2
2019-03-11T12:16:04.429Z,95622.1
2019-03-11T12:17:06.309Z,95612.8
2019-03-11T12:18:07.942Z,95620.8
2019-03-11T12:19:10.082Z,95624
2019-03-11T12:20:12.252Z,95621.9
2019-03-11T12:21:14.684Z,95622.1
2019-03-11T12:22:17.132Z,95617
2019-03-11T12:23:19.293Z,95615.3
2019-03-11T12:24:21.731Z,95612.5
2019-03-11T12:25:24.180Z,95609.8
2019-03-11T12:26:26.422Z,95617.2
2019-03-11T12:27:28.870Z,95616.5
2019-03-11T12:28:31.292Z,95613.7
2019-03-11T12:29:33.435Z,95612
2019-03-11T12:30:35.861Z,95608.2
2019-03-11T12:31:38.023Z,95614.8
2019-03-11T12:32:40.442Z,95611.1
2019-03-11T12:33:42.892Z,95612
2019-03-11T12:34:45.063Z,95613.1
2019-03-11T12:35:47.527Z,95613.9
2019-03-11T12:36:49.961Z,95613.9
2019-03-11T12:37:52.123Z,95613.5
2019-03-11T12:38:54.562Z,95611.7
2019-03-11T12:39:56.724Z,95616.8
2019-03-11T12:40:58.598Z,95603.7
2019-03-11T12:42:00.776Z,95610.8
2019-03-11T12:43:03.218Z,95611.2
2019-03-11T12:44:05.384Z,95608.1
2019-03-11T12:45:07.828Z,95613.8
2019-03-11T12:46:10.009Z,95612
2019-03-11T12:47:12.220Z,95607.8
2019-03-11T12:48:14.111Z,95603.4
2019-03-11T12:49:16.011Z,95603.5
2019-03-11T12:50:17.590Z,95604.3